Anerly, United Kingdom
Current Conditions -  °F | °C
As of 10:20 AM on Monday 22 Dec 2014 (Local Time) from EGKB Reporting Station
Broken Clouds Broken Clouds  
Wind Chill: 54°   Ceiling: 2000
Heat Index: 54°   Visibility: 6mi
Dew Point: 46°   Wind: 21mph
Humidity: 77%   Direction: 250°WSW
Pressure: 30.09"   Gusts: 32mph
Location:  51.41°N, 0.06°W
Report Text: EGKB 221020Z 25018G28KT 210V270 9999 BKN020 12/08 Q1019
Loading
Personal Weather Stations






























Interactive Weather Map New forecast layout! Learn more

10-Day Weather Forecast

Advertisements
Track Severe Weather on mobile